ユジノサハリンスク の空港の天気 - METARとTAF

ホムトヴォ空港(ユジノサハリンスク) ( UHSS / UUS ) - ロシア ユジノサハリンスク
飛行場実況気象(Metar)
観測時間01/18 19:30 VLAT (01/18 09:30 UTC)
風向・風速西北西 3m/s
視程3000m
天気現象弱いしゅう雪
全天の4割程度の雲 雲底高度 270m
全天の8割程度の雲 雲底高度 340m
気温-2℃
湿度93%
気圧1009hPa
METARUHSS 180930Z 30003MPS 3000 -SHSN SCT009 BKN011CB M02/M03 Q1009 R01/490535 NOSIG RMK MT OBSC QFE755/1007
過去の天気等 Google飛行場航空写真 Wunderground天気予報

過去48時間のMETAR

飛行場予報(TAF)
発表時間: 1/18 18:00 VLAT (1/18 08:00 UTC)
予報対象時間: 18日19時 VLAT ~ 20日1時 VLAT
風向・風速南南東 3m/s
視程3,000m
天気現象弱いしゅう雪
全天の8割程度の積乱雲 雲底高度 520m
全天を覆う雲 雲底高度 3,050m
18日19時 VLAT ~ 20日1時 VLAT に一時的に
視程1,000m
天気現象しゅう雪
全天の8割程度の雲 雲底高度 270m
全天の8割程度の積乱雲 雲底高度 520m
19日6時 VLAT ~ 19日10時 VLAT に徐々に
風向・風速北西 5m/s
TAF UHSS 180800Z 1809/1915 15003MPS 3000 -SHSN BKN017CB OVC100
TEMPO 1809/1915 1000 SHSN BKN009 BKN017CB
BECMG 1820/1824 31005MPS